Saint-Ludger, Canada
Current Conditions -  °F | °C
As of 11:50 AM on Tuesday 27 Jan 2015 (Local Time) from CYSC Reporting Station
Light Snow Light Snow  
Wind Chill: -12°   Ceiling: 3100
Heat Index:   Visibility: 6mi
Dew Point: -6°   Wind: 14mph
Humidity: 61%   Direction: 40°NE
Pressure: 29.9"   Gusts: 22mph
Location:  45.75°N, 70.7°W
Report Text: CYSC 271650Z AUTO 04012G19KT 6SM -SN SCT025 BKN031 BKN040 OVC048 M15/M21 A2990 RMK SLP146
Loading
Personal Weather Stations






























Interactive Weather Map New forecast layout! Learn more

10-Day Weather Forecast

Advertisements
Track Severe Weather on mobile